createdAt,value
2018-06-08T00:01:34.192Z,38.60
2018-06-08T00:04:02.661Z,36.17
2018-06-08T00:06:31.126Z,41.47
2018-06-08T00:08:59.572Z,37.37
2018-06-08T00:11:27.724Z,38.47
2018-06-08T00:13:56.556Z,42.37
2018-06-08T00:16:25.004Z,40.03
2018-06-08T00:18:53.188Z,41.90
2018-06-08T00:21:21.641Z,41.63
2018-06-08T00:23:50.120Z,37.87
2018-06-08T00:26:18.605Z,40.60
2018-06-08T00:28:48.616Z,40.47
2018-06-08T00:31:17.057Z,41.13
2018-06-08T00:33:45.548Z,39.13
2018-06-08T00:36:13.980Z,40.67
2018-06-08T00:38:42.697Z,40.27
2018-06-08T00:41:11.159Z,45.30
2018-06-08T00:43:41.277Z,41.87
2018-06-08T00:46:09.732Z,44.73
2018-06-08T00:48:38.238Z,38.77
2018-06-08T00:51:06.692Z,41.20
2018-06-08T00:53:35.161Z,43.40
2018-06-08T00:56:03.669Z,41.73
2018-06-08T00:58:32.128Z,49.53
2018-06-08T01:01:00.593Z,43.70
2018-06-08T01:03:29.069Z,47.53
2018-06-08T01:05:57.512Z,46.83
2018-06-08T01:08:25.957Z,51.63
2018-06-08T01:10:54.092Z,51.20
2018-06-08T01:13:22.567Z,55.97
2018-06-08T01:15:51.013Z,49.20
2018-06-08T01:18:19.441Z,53.50
2018-06-08T01:20:47.942Z,49.60
2018-06-08T01:23:16.424Z,49.73
2018-06-08T01:25:44.944Z,51.70
2018-06-08T01:28:13.441Z,49.83
2018-06-08T01:30:41.867Z,53.37
2018-06-08T01:33:10.313Z,51.67
2018-06-08T01:35:38.812Z,56.47
2018-06-08T01:38:07.256Z,54.17
2018-06-08T01:40:35.705Z,56.03
2018-06-08T01:43:04.197Z,54.10
2018-06-08T01:45:32.705Z,62.13
2018-06-08T01:48:01.165Z,55.13
2018-06-08T01:50:29.603Z,56.80
2018-06-08T01:52:58.065Z,55.93
2018-06-08T01:55:26.488Z,57.03
2018-06-08T01:57:55.104Z,66.27
2018-06-08T02:00:23.604Z,61.37
2018-06-08T02:02:52.537Z,71.27
2018-06-08T02:05:20.992Z,77.27
2018-06-08T02:07:49.469Z,65.87
2018-06-08T02:10:17.921Z,67.63
2018-06-08T02:12:46.414Z,66.33
2018-06-08T02:15:15.038Z,67.83
2018-06-08T02:17:43.623Z,66.60
2018-06-08T02:20:12.084Z,75.30
2018-06-08T02:22:40.568Z,69.57
2018-06-08T02:25:09.039Z,69.07
2018-06-08T02:27:37.477Z,67.80
2018-06-08T02:30:06.018Z,72.93
2018-06-08T02:32:34.590Z,69.87
2018-06-08T02:35:03.109Z,71.23
2018-06-08T02:37:31.575Z,69.63
2018-06-08T02:40:00.071Z,82.57
2018-06-08T02:42:28.561Z,70.00
2018-06-08T02:44:57.040Z,63.93
2018-06-08T02:47:25.517Z,77.57
2018-06-08T02:49:53.996Z,69.07
2018-06-08T02:52:22.434Z,67.70
2018-06-08T02:54:50.890Z,74.93
2018-06-08T02:57:21.390Z,70.27
2018-06-08T02:59:49.924Z,73.37
2018-06-08T03:02:18.356Z,70.70
2018-06-08T03:04:46.844Z,76.73
2018-06-08T03:07:15.293Z,75.73
2018-06-08T03:09:43.873Z,82.90
2018-06-08T03:12:12.319Z,86.30
2018-06-08T03:14:40.793Z,74.33
2018-06-08T03:17:09.254Z,80.23
2018-06-08T03:19:37.704Z,88.10
2018-06-08T03:22:06.952Z,91.67
2018-06-08T03:24:35.477Z,85.43
2018-06-08T03:27:04.020Z,90.87
2018-06-08T03:29:32.504Z,94.83
2018-06-08T03:32:01.003Z,106.27
2018-06-08T03:34:31.832Z,90.60
2018-06-08T03:37:00.276Z,102.30
2018-06-08T03:39:28.739Z,108.90
2018-06-08T03:41:57.242Z,99.67
2018-06-08T03:44:25.701Z,103.73
2018-06-08T03:46:54.314Z,106.20
2018-06-08T03:49:22.733Z,95.20
2018-06-08T03:51:51.228Z,93.40
2018-06-08T03:54:19.683Z,97.83
2018-06-08T03:56:49.227Z,104.60
2018-06-08T03:59:18.308Z,90.10
2018-06-08T04:01:46.793Z,103.80
2018-06-08T04:04:15.365Z,100.90
2018-06-08T04:06:45.141Z,97.87
2018-06-08T04:09:13.637Z,95.93
2018-06-08T04:11:42.104Z,96.57
2018-06-08T04:14:10.620Z,87.53
2018-06-08T04:16:39.036Z,89.43
2018-06-08T04:19:07.562Z,103.30
2018-06-08T04:21:35.997Z,96.07
2018-06-08T04:24:04.484Z,92.47
2018-06-08T04:26:32.915Z,89.87
2018-06-08T04:29:01.436Z,91.33
2018-06-08T04:31:29.949Z,83.63
2018-06-08T04:33:58.445Z,93.07
2018-06-08T04:36:26.917Z,82.73
2018-06-08T04:38:55.352Z,86.40
2018-06-08T04:41:23.862Z,77.70
2018-06-08T04:43:52.294Z,86.83
2018-06-08T04:46:20.448Z,90.23
2018-06-08T04:48:48.591Z,78.37
2018-06-08T04:51:17.097Z,85.57
2018-06-08T04:53:45.560Z,91.83
2018-06-08T04:56:14.229Z,86.87
2018-06-08T04:58:42.692Z,97.47
2018-06-08T05:01:11.182Z,101.37
2018-06-08T05:03:39.683Z,91.03
2018-06-08T05:06:08.177Z,103.93
2018-06-08T05:08:36.732Z,92.97
2018-06-08T05:11:05.197Z,90.33
2018-06-08T05:13:33.665Z,94.10
2018-06-08T05:16:02.126Z,86.17
2018-06-08T05:18:31.609Z,104.40
2018-06-08T05:21:00.051Z,111.80
2018-06-08T05:23:30.907Z,106.30
2018-06-08T05:25:59.383Z,104.90
2018-06-08T05:28:27.913Z,110.43
2018-06-08T05:30:56.417Z,108.10
2018-06-08T05:33:24.864Z,118.27
2018-06-08T05:35:53.378Z,112.90
2018-06-08T05:38:21.873Z,117.80
2018-06-08T05:40:50.391Z,114.53
2018-06-08T05:43:18.860Z,111.63
2018-06-08T05:45:47.321Z,110.97
2018-06-08T05:48:15.773Z,118.37
2018-06-08T05:50:44.289Z,134.97
2018-06-08T05:53:12.754Z,124.37
2018-06-08T05:55:41.225Z,124.63
2018-06-08T05:58:09.665Z,114.43
2018-06-08T06:00:38.108Z,120.37
2018-06-08T06:03:06.600Z,117.30
2018-06-08T06:05:34.760Z,125.87
2018-06-08T06:08:03.253Z,119.50
2018-06-08T06:10:31.821Z,113.77
2018-06-08T06:13:00.297Z,121.57
2018-06-08T06:15:28.761Z,127.30
2018-06-08T06:17:57.213Z,142.43
2018-06-08T06:20:25.760Z,103.53
2018-06-08T06:22:54.213Z,111.07
2018-06-08T06:25:22.672Z,106.87
2018-06-08T06:27:51.185Z,99.93
2018-06-08T06:30:19.848Z,98.37
2018-06-08T06:32:48.305Z,94.03
2018-06-08T06:35:18.108Z,103.43
2018-06-08T06:37:46.684Z,94.03
2018-06-08T06:40:15.125Z,93.03
2018-06-08T06:42:43.744Z,98.17
2018-06-08T06:45:12.194Z,90.17
2018-06-08T06:47:40.316Z,102.97
2018-06-08T06:50:08.797Z,103.27
2018-06-08T06:52:37.292Z,112.53
2018-06-08T06:55:06.000Z,110.90
2018-06-08T06:57:34.460Z,96.17
2018-06-08T07:00:02.952Z,102.73
2018-06-08T07:02:31.416Z,106.33
2018-06-08T07:04:59.884Z,102.67
2018-06-08T07:07:28.372Z,106.57
2018-06-08T07:09:57.129Z,114.80
2018-06-08T07:12:25.660Z,112.50
2018-06-08T07:14:54.099Z,106.33
2018-06-08T07:17:22.545Z,106.80
2018-06-08T07:19:51.046Z,108.27
2018-06-08T07:22:20.988Z,136.43
2018-06-08T07:24:49.535Z,125.57
2018-06-08T07:27:18.129Z,117.53
2018-06-08T07:29:46.585Z,106.13
2018-06-08T07:32:15.058Z,117.10
2018-06-08T07:34:43.505Z,106.57
2018-06-08T07:37:11.944Z,112.67
2018-06-08T07:39:40.399Z,99.87
2018-06-08T07:42:08.857Z,100.53
2018-06-08T07:44:37.322Z,100.13
2018-06-08T07:47:05.782Z,107.50
2018-06-08T07:49:34.258Z,111.33
2018-06-08T07:52:02.704Z,101.03
2018-06-08T07:54:31.180Z,101.67
2018-06-08T07:57:02.739Z,94.27
2018-06-08T07:59:31.844Z,94.83
2018-06-08T08:02:00.392Z,89.43
2018-06-08T08:04:28.873Z,90.83
2018-06-08T08:06:57.341Z,95.27
2018-06-08T08:09:25.785Z,84.60
2018-06-08T08:11:54.245Z,77.27
2018-06-08T08:14:22.721Z,80.53
2018-06-08T08:16:51.195Z,87.10
2018-06-08T08:19:19.717Z,83.07
2018-06-08T08:21:48.178Z,82.50
2018-06-08T08:24:16.665Z,94.33
2018-06-08T08:26:45.148Z,85.27
2018-06-08T08:29:13.609Z,77.57
2018-06-08T08:31:42.059Z,84.27
2018-06-08T08:34:10.600Z,68.30
2018-06-08T08:36:39.081Z,69.83
2018-06-08T08:39:09.204Z,74.60
2018-06-08T08:41:37.712Z,77.67
2018-06-08T08:44:06.392Z,75.97
2018-06-08T08:46:34.816Z,83.03
2018-06-08T08:49:03.436Z,66.17
2018-06-08T08:51:31.942Z,62.47
2018-06-08T08:54:00.625Z,58.87
2018-06-08T08:56:29.062Z,56.43
2018-06-08T08:58:57.625Z,44.63
2018-06-08T09:01:26.113Z,49.87
2018-06-08T09:03:54.655Z,43.97
2018-06-08T09:06:23.079Z,45.70
2018-06-08T09:08:51.546Z,47.30
2018-06-08T09:11:20.125Z,51.80
2018-06-08T09:13:48.568Z,50.20
2018-06-08T09:16:17.017Z,40.20
2018-06-08T09:18:45.556Z,41.63
2018-06-08T09:21:13.989Z,42.53
2018-06-08T09:23:42.464Z,40.33
2018-06-08T09:26:10.885Z,44.50
2018-06-08T09:28:39.397Z,40.40
2018-06-08T09:31:07.905Z,41.77
2018-06-08T09:33:36.341Z,42.57
2018-06-08T09:36:04.847Z,45.63
2018-06-08T09:38:33.298Z,41.97
2018-06-08T09:41:01.791Z,41.13
2018-06-08T09:43:30.434Z,47.83
2018-06-08T09:45:59.039Z,48.80
2018-06-08T09:48:27.456Z,57.43
2018-06-08T09:50:55.908Z,58.27
2018-06-08T09:53:24.384Z,60.23
2018-06-08T09:55:52.864Z,62.07
2018-06-08T09:58:21.332Z,65.80
2018-06-08T10:00:49.905Z,62.90
2018-06-08T10:03:18.365Z,58.73
2018-06-08T10:05:46.846Z,59.87
2018-06-08T10:08:15.272Z,59.57
2018-06-08T10:10:43.720Z,63.97
2018-06-08T10:13:12.229Z,66.93
2018-06-08T10:15:40.672Z,57.73
2018-06-08T10:18:09.185Z,60.10
2018-06-08T10:20:37.666Z,56.27
2018-06-08T10:23:06.224Z,61.87
2018-06-08T10:25:35.268Z,54.10
2018-06-08T10:28:03.891Z,57.83
2018-06-08T10:30:32.524Z,57.10
2018-06-08T10:33:00.999Z,54.60
2018-06-08T10:35:29.461Z,57.60
2018-06-08T10:37:57.977Z,59.40
2018-06-08T10:40:26.404Z,59.77
2018-06-08T10:42:54.868Z,60.70
2018-06-08T10:45:23.320Z,54.70
2018-06-08T10:47:51.949Z,56.63
2018-06-08T10:50:20.421Z,53.17
2018-06-08T10:52:48.856Z,55.03
2018-06-08T10:55:17.370Z,54.87
2018-06-08T10:57:45.840Z,53.83
2018-06-08T11:00:14.406Z,53.17
2018-06-08T11:02:42.940Z,53.90
2018-06-08T11:05:11.460Z,44.27
2018-06-08T11:07:39.965Z,39.93
2018-06-08T11:10:08.396Z,40.40
2018-06-08T11:12:36.844Z,49.03
2018-06-08T11:15:05.368Z,46.23
2018-06-08T11:17:33.802Z,44.13
2018-06-08T11:20:02.405Z,46.87
2018-06-08T11:22:30.892Z,53.30
2018-06-08T11:24:59.392Z,48.70
2018-06-08T11:27:27.864Z,42.77
2018-06-08T11:29:56.369Z,46.57
2018-06-08T11:32:24.826Z,46.80
2018-06-08T11:34:53.279Z,41.10
2018-06-08T11:37:21.752Z,45.10
2018-06-08T11:39:50.308Z,47.30
2018-06-08T11:42:18.995Z,42.30
2018-06-08T11:44:47.476Z,39.73
2018-06-08T11:47:16.033Z,39.20
2018-06-08T11:49:44.494Z,35.83
2018-06-08T11:52:12.930Z,39.70
2018-06-08T11:54:41.773Z,44.00
2018-06-08T11:57:10.243Z,36.27
2018-06-08T11:59:38.364Z,30.73
2018-06-08T12:02:06.832Z,30.87
2018-06-08T12:04:35.313Z,29.57
2018-06-08T12:07:03.821Z,28.33
2018-06-08T12:09:32.333Z,23.80
2018-06-08T12:12:00.848Z,26.73
2018-06-08T12:14:29.304Z,22.77
2018-06-08T12:16:57.837Z,22.33
2018-06-08T12:19:26.267Z,16.33
2018-06-08T12:21:54.740Z,16.47
2018-06-08T12:24:23.202Z,13.40
2018-06-08T12:26:51.673Z,11.57
2018-06-08T12:29:20.185Z,9.40
2018-06-08T12:31:48.641Z,10.27
2018-06-08T12:34:17.092Z,11.53
2018-06-08T12:36:45.533Z,10.80
2018-06-08T12:39:15.576Z,10.43
2018-06-08T12:41:44.128Z,10.53
2018-06-08T12:44:12.541Z,9.13
2018-06-08T12:46:40.981Z,11.67
2018-06-08T12:49:09.592Z,12.57
2018-06-08T12:51:38.150Z,11.60
2018-06-08T12:54:06.668Z,11.93
2018-06-08T12:56:35.157Z,10.07
2018-06-08T12:59:03.730Z,13.27
2018-06-08T13:01:32.260Z,10.47
2018-06-08T13:04:00.390Z,12.63
2018-06-08T13:06:29.065Z,15.13
2018-06-08T13:08:57.601Z,12.20
2018-06-08T13:11:25.797Z,10.03
2018-06-08T13:13:54.301Z,11.10
2018-06-08T13:16:22.864Z,12.17
2018-06-08T13:18:51.333Z,9.30
2018-06-08T13:21:20.091Z,6.67
2018-06-08T13:23:49.456Z,7.57
2018-06-08T13:26:17.985Z,7.00
2018-06-08T13:28:46.496Z,8.03
2018-06-08T13:31:15.063Z,10.60
2018-06-08T13:33:43.929Z,9.53
2018-06-08T13:36:12.368Z,9.67
2018-06-08T13:38:40.788Z,7.87
2018-06-08T13:41:09.269Z,9.70
2018-06-08T13:43:37.733Z,11.30
2018-06-08T13:46:17.281Z,9.20
2018-06-08T13:48:45.757Z,9.30
2018-06-08T13:51:14.191Z,8.43
2018-06-08T13:53:42.654Z,10.50
2018-06-08T13:56:11.216Z,10.83
2018-06-08T13:58:40.939Z,10.43
2018-06-08T14:01:09.796Z,12.27
2018-06-08T14:03:38.292Z,14.60
2018-06-08T14:06:06.878Z,11.20
2018-06-08T14:08:35.360Z,11.13
2018-06-08T14:11:05.900Z,14.17
2018-06-08T14:13:34.352Z,10.53
2018-06-08T14:16:02.452Z,11.60
2018-06-08T14:18:30.925Z,13.17
2018-06-08T14:20:59.435Z,13.33
2018-06-08T14:23:27.889Z,11.70
2018-06-08T14:25:56.329Z,13.57
2018-06-08T14:28:24.828Z,13.40
2018-06-08T14:30:53.337Z,13.50
2018-06-08T14:33:21.765Z,14.97
2018-06-08T14:35:50.447Z,13.67
2018-06-08T14:38:19.053Z,13.63
2018-06-08T14:40:47.630Z,14.57
2018-06-08T14:43:16.256Z,15.47
2018-06-08T14:45:44.737Z,15.03
2018-06-08T14:48:13.169Z,14.80
2018-06-08T14:50:41.926Z,16.43
2018-06-08T14:53:10.417Z,16.47
2018-06-08T14:55:39.304Z,15.57
2018-06-08T14:58:08.314Z,14.70
2018-06-08T15:00:36.818Z,16.57
2018-06-08T15:03:05.954Z,15.07
2018-06-08T15:05:34.420Z,15.50
2018-06-08T15:08:02.953Z,16.63
2018-06-08T15:10:31.668Z,14.43
2018-06-08T15:13:00.139Z,14.37
2018-06-08T15:15:29.318Z,17.57
2018-06-08T15:17:58.000Z,16.53
2018-06-08T15:20:26.435Z,14.27
2018-06-08T15:22:57.208Z,14.80
2018-06-08T15:25:25.721Z,14.13
2018-06-08T15:27:54.194Z,15.47
2018-06-08T15:30:22.638Z,15.67
2018-06-08T15:32:51.120Z,16.47
2018-06-08T15:35:19.596Z,17.80
2018-06-08T15:37:50.645Z,16.07
2018-06-08T15:40:19.133Z,14.97
2018-06-08T15:42:47.616Z,15.20
2018-06-08T15:45:17.317Z,14.20
2018-06-08T15:47:45.800Z,19.93
2018-06-08T15:50:14.941Z,18.77
2018-06-08T15:52:43.401Z,15.83
2018-06-08T15:55:11.864Z,16.77
2018-06-08T15:57:40.339Z,17.47
2018-06-08T16:00:08.824Z,16.57
2018-06-08T16:02:37.731Z,14.37
2018-06-08T16:05:06.688Z,16.87
2018-06-08T16:07:35.271Z,16.33
2018-06-08T16:10:03.873Z,14.70
2018-06-08T16:12:33.229Z,17.20
2018-06-08T16:15:01.729Z,16.60
2018-06-08T16:17:31.425Z,18.27
2018-06-08T16:19:59.886Z,19.57
2018-06-08T16:22:28.426Z,16.37
2018-06-08T16:24:56.880Z,16.50
2018-06-08T16:27:25.352Z,19.03
2018-06-08T16:29:53.785Z,17.00
2018-06-08T16:32:22.253Z,16.63
2018-06-08T16:34:50.788Z,18.70
2018-06-08T16:37:19.312Z,17.87
2018-06-08T16:39:47.748Z,19.77
2018-06-08T16:42:16.067Z,20.80
2018-06-08T16:44:44.525Z,19.47
2018-06-08T16:47:13.404Z,21.37
2018-06-08T16:49:41.975Z,22.53
2018-06-08T16:52:10.433Z,20.57
2018-06-08T16:54:38.889Z,21.93
2018-06-08T16:57:07.420Z,20.00
2018-06-08T16:59:35.869Z,23.40
2018-06-08T17:02:04.433Z,24.50
2018-06-08T17:04:33.382Z,21.50
2018-06-08T17:07:01.835Z,22.50
2018-06-08T17:09:30.364Z,24.73
2018-06-08T17:11:58.913Z,21.33
2018-06-08T17:14:27.446Z,23.40
2018-06-08T17:16:55.938Z,24.67
2018-06-08T17:19:25.110Z,23.23
2018-06-08T17:21:53.702Z,20.97
2018-06-08T17:24:22.180Z,23.53
2018-06-08T17:26:50.661Z,22.57
2018-06-08T17:29:19.112Z,22.90
2018-06-08T17:31:47.589Z,25.70
2018-06-08T17:34:16.066Z,23.77
2018-06-08T17:36:44.503Z,23.37
2018-06-08T17:39:12.969Z,21.70
2018-06-08T17:41:41.485Z,20.60
2018-06-08T17:44:10.013Z,21.60
2018-06-08T17:46:38.454Z,22.00
2018-06-08T17:49:06.927Z,23.50
2018-06-08T17:51:35.409Z,21.10
2018-06-08T17:54:03.980Z,23.57
2018-06-08T17:56:32.512Z,23.50
2018-06-08T17:59:01.082Z,21.73
2018-06-08T18:01:29.717Z,20.57
2018-06-08T18:03:58.242Z,22.13
2018-06-08T18:06:26.832Z,22.80
2018-06-08T18:08:55.269Z,24.37
2018-06-08T18:11:24.601Z,23.90
2018-06-08T18:13:53.112Z,20.67
2018-06-08T18:16:21.626Z,22.67
2018-06-08T18:18:50.081Z,21.17
2018-06-08T18:21:18.548Z,23.07
2018-06-08T18:23:47.089Z,20.07
2018-06-08T18:26:15.692Z,20.43
2018-06-08T18:28:44.160Z,24.90
2018-06-08T18:31:12.601Z,24.17
2018-06-08T18:33:41.062Z,22.20
2018-06-08T18:36:09.540Z,23.70
2018-06-08T18:38:38.120Z,22.30
2018-06-08T18:41:06.629Z,20.63
2018-06-08T18:43:35.089Z,23.73
2018-06-08T18:46:03.572Z,22.50
2018-06-08T18:48:32.110Z,24.17
2018-06-08T18:51:00.581Z,24.43
2018-06-08T18:53:30.553Z,27.03
2018-06-08T18:55:59.068Z,26.67
2018-06-08T18:58:27.624Z,29.97
2018-06-08T19:00:56.149Z,31.57
2018-06-08T19:03:24.681Z,29.13
2018-06-08T19:05:53.149Z,31.03
2018-06-08T19:08:21.604Z,31.73
2018-06-08T19:10:50.093Z,32.93
2018-06-08T19:13:18.608Z,29.43
2018-06-08T19:15:47.117Z,32.97
2018-06-08T19:18:15.570Z,34.37
2018-06-08T19:20:44.087Z,31.80
2018-06-08T19:23:12.605Z,37.50
2018-06-08T19:25:41.153Z,35.57
2018-06-08T19:28:09.621Z,38.53
2018-06-08T19:30:38.080Z,36.97
2018-06-08T19:33:06.284Z,35.83
2018-06-08T19:35:34.760Z,34.83
2018-06-08T19:38:03.244Z,38.73
2018-06-08T19:40:31.770Z,39.07
2018-06-08T19:43:00.240Z,43.33
2018-06-08T19:45:28.705Z,40.43
2018-06-08T19:47:57.640Z,39.77
2018-06-08T19:50:27.565Z,40.27
2018-06-08T19:52:55.716Z,39.73
2018-06-08T19:55:24.160Z,41.13
2018-06-08T19:57:52.669Z,42.23
2018-06-08T20:00:21.178Z,43.00
2018-06-08T20:02:49.650Z,43.80
2018-06-08T20:05:18.076Z,41.20
2018-06-08T20:07:46.561Z,40.87
2018-06-08T20:10:21.879Z,44.83
2018-06-08T20:12:50.353Z,43.97
2018-06-08T20:15:18.813Z,42.77
2018-06-08T20:17:47.577Z,47.90
2018-06-08T20:20:16.148Z,49.87
2018-06-08T20:22:44.605Z,45.47
2018-06-08T20:25:13.057Z,45.83
2018-06-08T20:27:41.637Z,48.10
2018-06-08T20:30:10.182Z,46.97
2018-06-08T20:32:38.664Z,44.17
2018-06-08T20:35:07.168Z,45.43
2018-06-08T20:37:35.689Z,45.53
2018-06-08T20:40:04.204Z,47.67
2018-06-08T20:42:32.729Z,46.53
2018-06-08T20:45:01.186Z,50.27
2018-06-08T20:47:29.725Z,50.67
2018-06-08T20:49:58.176Z,49.40
2018-06-08T20:52:26.746Z,47.70
2018-06-08T20:54:55.312Z,41.43
2018-06-08T20:57:26.517Z,42.80
2018-06-08T20:59:56.430Z,41.33
2018-06-08T21:02:25.027Z,41.60
2018-06-08T21:04:53.417Z,40.70
2018-06-08T21:07:21.568Z,41.47
2018-06-08T21:09:50.065Z,42.90
2018-06-08T21:12:18.542Z,43.50
2018-06-08T21:14:47.022Z,41.37
2018-06-08T21:17:15.506Z,41.47
2018-06-08T21:19:43.656Z,40.60
2018-06-08T21:22:12.144Z,40.93
2018-06-08T21:24:40.636Z,40.57
2018-06-08T21:27:09.121Z,42.33
2018-06-08T21:29:37.562Z,41.77
2018-06-08T21:32:06.126Z,46.87
2018-06-08T21:34:34.574Z,47.40
2018-06-08T21:37:03.041Z,47.00
2018-06-08T21:39:31.508Z,46.57
2018-06-08T21:41:59.976Z,43.43
2018-06-08T21:44:28.564Z,43.90
2018-06-08T21:46:57.224Z,50.47
2018-06-08T21:49:25.704Z,48.03
2018-06-08T21:51:54.144Z,46.67
2018-06-08T21:54:22.645Z,45.07
2018-06-08T21:56:51.073Z,50.97
2018-06-08T21:59:19.585Z,50.87
2018-06-08T22:01:48.117Z,48.63
2018-06-08T22:04:16.653Z,49.43
2018-06-08T22:06:45.177Z,49.03
2018-06-08T22:09:15.889Z,50.20
2018-06-08T22:11:44.562Z,50.03
2018-06-08T22:14:13.046Z,46.63
2018-06-08T22:16:41.504Z,51.70
2018-06-08T22:19:09.964Z,47.60
2018-06-08T22:21:38.493Z,45.43
2018-06-08T22:24:07.039Z,48.30
2018-06-08T22:26:35.501Z,48.87
2018-06-08T22:29:03.643Z,51.33
2018-06-08T22:31:32.109Z,47.87
2018-06-08T22:34:00.539Z,50.90
2018-06-08T22:36:29.247Z,48.10
2018-06-08T22:38:57.723Z,50.13
2018-06-08T22:41:26.248Z,52.03
2018-06-08T22:43:54.732Z,55.20
2018-06-08T22:46:23.377Z,53.57
2018-06-08T22:48:51.821Z,52.63
2018-06-08T22:51:20.273Z,55.10
2018-06-08T22:53:48.733Z,55.20
2018-06-08T22:56:17.169Z,53.57
2018-06-08T22:58:45.624Z,54.03
2018-06-08T23:01:13.752Z,56.57
2018-06-08T23:03:42.217Z,55.43
2018-06-08T23:06:10.703Z,53.10
2018-06-08T23:08:39.241Z,55.43
2018-06-08T23:11:07.829Z,56.40
2018-06-08T23:13:36.256Z,53.53
2018-06-08T23:16:04.728Z,55.53
2018-06-08T23:18:33.185Z,57.07
2018-06-08T23:21:01.648Z,53.80
2018-06-08T23:23:30.112Z,54.50
2018-06-08T23:25:59.000Z,54.00
2018-06-08T23:28:27.521Z,56.57
2018-06-08T23:30:55.973Z,56.87
2018-06-08T23:33:25.407Z,53.87
2018-06-08T23:35:54.622Z,55.27
2018-06-08T23:38:23.131Z,56.87
2018-06-08T23:40:51.589Z,57.57
2018-06-08T23:43:20.269Z,56.33
2018-06-08T23:45:48.820Z,55.83
2018-06-08T23:48:17.265Z,59.00
2018-06-08T23:50:45.840Z,64.20
2018-06-08T23:53:14.523Z,65.37
2018-06-08T23:55:42.992Z,60.07
2018-06-08T23:58:11.628Z,61.93
